Savannah, GA (31405)

10:43 AM EST en Noviembre 28, 2014 (GMT -0500)
Gould Estates | Change Station
CLOSE
Current Station
Estación meteorológica personal
Location: Savannah, GA
Altura: 52 ft
Estaciones meteorológicas cercanas

Alt 52 ft 32.04 °N, 81.10 °W | Updated 3 minutes ago

Clear
Despejado
45.6 ° F
Sensación térmica 46 ° F
N
0.7
Viento Variable Viento desde NE
Gusts 4.2 mph

Hoy
Alta -- | Baja -- ° F
--% Posibilidad de precipitaciones
Ayer
Alta -- | Baja -- ° F
Precip. -- pul
7:04 AM 5:20 PM
Creciente, 41% visible
Presión 30.41 pul
Visibilidad 10.0 Millas
Nubes Despejado
Vientos helados 46 ° F
Punto de rocío 26 ° F
Humedad 45%
Precipitaciones 0.00 pul
Espesor de la nieve No disponible.
UV 3 de una escala de 12
Polen 1.40 de una escala de 12
Calidad del aire No disponible.
Flu Activity No disponible.
METAR KSVN 281458Z AUTO 04008KT 10SM CLR 06/M02 A3040 RMK AO2 SLP298 T00611023 52018

More Conditions Fewer Conditions

Presión 30.41 pul
Visibilidad 10.0 Millas
Nubes Despejado
Vientos helados 46 ° F
Punto de rocío 26 ° F
Humedad 45%
Precipitaciones 0.00 pul
Espesor de la nieve No disponible.
UV 3 de una escala de 12
Polen 1.40 de una escala de 12
Calidad del aire No disponible.
Flu Activity No disponible.
METAR KSVN 281458Z AUTO 04008KT 10SM CLR 06/M02 A3040 RMK AO2 SLP298 T00611023 52018

More Conditions Fewer Conditions

10-Day Weather Forecast

Almanac

Astronomía

Nov. 28, 2014 Salida Puesta
Hora real
Crepúsculo civil
Crepúsculo náutico
Crepúsculo astronómico
Luna
Horas de luz
Horas de luz
Tomorrow will be .
, % of the Moon is Illuminated

Extremos de hoy

Máximos del estado Bajos del estado

Community

WunderPhotos

Upload Photos

1,774,234 ¡fotos cargadas!

WunderBlogs® & News

Nearby

Calidad del aire

  Calidad del aire Índice AQ Contaminante
Not available.

Grosos de nieve

Estación Profundido Altura

Actividad de terremotos

Ciudad Distance Mag. Tiempo y dato
Magnitud mínima muestra es 2,5.

Temperaturas de aguas costeras

Lugar Temperatura

Estaciones meteorológicas cercanas